createdAt,value
2018-03-17T00:01:00.380Z,6.73
2018-03-17T00:03:26.346Z,6.40
2018-03-17T00:05:53.066Z,6.63
2018-03-17T00:08:19.071Z,5.70
2018-03-17T00:10:45.745Z,6.43
2018-03-17T00:13:11.716Z,5.87
2018-03-17T00:15:37.675Z,6.47
2018-03-17T00:18:04.404Z,6.87
2018-03-17T00:20:31.124Z,7.23
2018-03-17T00:22:57.084Z,6.57
2018-03-17T00:25:23.057Z,6.90
2018-03-17T00:27:49.030Z,6.70
2018-03-17T00:30:14.996Z,6.83
2018-03-17T00:32:41.698Z,5.93
2018-03-17T00:35:07.667Z,6.47
2018-03-17T00:37:33.624Z,6.60
2018-03-17T00:39:59.614Z,6.43
2018-03-17T00:42:26.329Z,7.00
2018-03-17T00:44:52.290Z,6.40
2018-03-17T00:47:19.012Z,7.37
2018-03-17T00:49:45.751Z,7.40
2018-03-17T00:52:11.787Z,6.30
2018-03-17T00:54:37.914Z,7.70
2018-03-17T00:57:03.990Z,8.10
2018-03-17T00:59:30.732Z,7.60
2018-03-17T01:01:57.475Z,7.00
2018-03-17T01:04:23.452Z,7.57
2018-03-17T01:06:49.464Z,7.53
2018-03-17T01:09:16.180Z,6.80
2018-03-17T01:11:42.188Z,7.60
2018-03-17T01:14:08.282Z,6.80
2018-03-17T01:16:35.149Z,7.33
2018-03-17T01:19:01.897Z,7.47
2018-03-17T01:21:28.631Z,7.53
2018-03-17T01:23:54.628Z,7.07
2018-03-17T01:26:27.651Z,7.00
2018-03-17T01:28:53.641Z,8.27
2018-03-17T01:31:19.718Z,8.00
2018-03-17T01:33:45.700Z,7.23
2018-03-17T01:36:12.865Z,7.63
2018-03-17T01:38:39.668Z,7.67
2018-03-17T01:41:05.732Z,7.27
2018-03-17T01:43:32.526Z,7.70
2018-03-17T01:45:58.489Z,7.37
2018-03-17T01:48:24.460Z,7.50
2018-03-17T01:50:50.444Z,7.53
2018-03-17T01:53:16.448Z,7.07
2018-03-17T01:55:43.192Z,7.77
2018-03-17T01:58:09.305Z,7.40
2018-03-17T02:00:35.361Z,7.13
2018-03-17T02:03:01.381Z,8.90
2018-03-17T02:05:27.459Z,7.47
2018-03-17T02:07:53.581Z,8.43
2018-03-17T02:10:19.552Z,7.73
2018-03-17T02:12:45.536Z,7.67
2018-03-17T02:15:11.562Z,7.80
2018-03-17T02:17:37.659Z,7.63
2018-03-17T02:20:03.693Z,7.27
2018-03-17T02:22:29.663Z,8.40
2018-03-17T02:24:55.653Z,7.37
2018-03-17T02:27:22.356Z,6.53
2018-03-17T02:29:48.348Z,6.33
2018-03-17T02:32:14.745Z,8.43
2018-03-17T02:34:40.794Z,7.07
2018-03-17T02:37:06.865Z,7.00
2018-03-17T02:39:32.995Z,8.63
2018-03-17T02:41:58.975Z,7.30
2018-03-17T02:44:24.967Z,8.30
2018-03-17T02:46:51.698Z,8.20
2018-03-17T02:49:17.692Z,6.40
2018-03-17T02:51:43.733Z,7.87
2018-03-17T02:54:09.834Z,8.37
2018-03-17T02:56:36.664Z,7.67
2018-03-17T02:59:04.255Z,8.00
2018-03-17T03:01:31.019Z,8.30
2018-03-17T03:03:57.717Z,8.00
2018-03-17T03:06:23.808Z,7.83
2018-03-17T03:08:50.596Z,6.00
2018-03-17T03:11:16.569Z,8.63
2018-03-17T03:13:42.536Z,9.07
2018-03-17T03:16:08.824Z,7.47
2018-03-17T03:18:34.876Z,8.53
2018-03-17T03:21:00.860Z,9.47
2018-03-17T03:23:27.464Z,8.83
2018-03-17T03:25:54.180Z,8.40
2018-03-17T03:28:20.160Z,9.13
2018-03-17T03:30:46.153Z,8.50
2018-03-17T03:33:12.137Z,9.13
2018-03-17T03:35:38.180Z,7.53
2018-03-17T03:38:05.079Z,7.97
2018-03-17T03:40:31.095Z,8.20
2018-03-17T03:42:57.054Z,7.53
2018-03-17T03:45:23.097Z,7.63
2018-03-17T03:47:49.081Z,7.10
2018-03-17T03:50:15.796Z,7.40
2018-03-17T03:52:41.877Z,7.63
2018-03-17T03:55:08.811Z,6.53
2018-03-17T03:57:35.686Z,7.53
2018-03-17T04:00:01.726Z,6.97
2018-03-17T04:02:28.462Z,8.57
2018-03-17T04:04:54.444Z,7.93
2018-03-17T04:07:20.487Z,7.33
2018-03-17T04:09:46.467Z,8.10
2018-03-17T04:12:12.519Z,7.33
2018-03-17T04:14:39.456Z,7.50
2018-03-17T04:17:05.532Z,7.17
2018-03-17T04:19:31.550Z,6.90
2018-03-17T04:21:58.340Z,7.00
2018-03-17T04:24:24.363Z,7.43
2018-03-17T04:26:51.154Z,7.40
2018-03-17T04:29:17.253Z,7.50
2018-03-17T04:31:43.414Z,5.53
2018-03-17T04:34:09.747Z,7.73
2018-03-17T04:36:36.207Z,6.77
2018-03-17T04:39:03.183Z,7.43
2018-03-17T04:41:29.227Z,8.30
2018-03-17T04:43:55.301Z,7.30
2018-03-17T04:46:22.091Z,7.47
2018-03-17T04:48:48.140Z,8.03
2018-03-17T04:51:14.349Z,7.93
2018-03-17T04:53:40.478Z,7.37
2018-03-17T04:56:06.645Z,7.80
2018-03-17T04:58:33.179Z,7.70
2018-03-17T05:00:59.257Z,6.80
2018-03-17T05:03:25.312Z,7.83
2018-03-17T05:05:51.345Z,5.23
2018-03-17T05:08:17.501Z,7.37
2018-03-17T05:10:44.484Z,7.30
2018-03-17T05:13:10.705Z,6.83
2018-03-17T05:15:37.653Z,5.93
2018-03-17T05:18:04.018Z,7.47
2018-03-17T05:20:30.133Z,7.10
2018-03-17T05:22:56.192Z,7.60
2018-03-17T05:25:22.963Z,6.67
2018-03-17T05:27:49.266Z,7.60
2018-03-17T05:30:15.493Z,6.77
2018-03-17T05:32:41.780Z,4.13
2018-03-17T05:35:08.203Z,7.53
2018-03-17T05:37:34.408Z,6.83
2018-03-17T05:40:00.449Z,7.20
2018-03-17T05:42:26.496Z,7.67
2018-03-17T05:44:59.569Z,6.83
2018-03-17T05:47:25.581Z,7.30
2018-03-17T05:49:51.560Z,5.67
2018-03-17T05:52:17.527Z,6.57
2018-03-17T05:54:43.643Z,6.87
2018-03-17T05:57:09.689Z,7.30
2018-03-17T05:59:35.744Z,7.80
2018-03-17T06:02:02.507Z,6.80
2018-03-17T06:04:29.267Z,6.93
2018-03-17T06:06:55.261Z,6.90
2018-03-17T06:09:21.273Z,5.87
2018-03-17T06:11:47.248Z,7.30
2018-03-17T06:14:13.320Z,7.27
2018-03-17T06:16:39.643Z,7.97
2018-03-17T06:19:06.438Z,7.53
2018-03-17T06:21:32.547Z,5.37
2018-03-17T06:23:59.355Z,5.63
2018-03-17T06:26:25.334Z,7.43
2018-03-17T06:28:52.042Z,7.17
2018-03-17T06:31:18.041Z,6.87
2018-03-17T06:33:44.136Z,6.97
2018-03-17T06:36:10.974Z,6.20
2018-03-17T06:38:37.135Z,3.80
2018-03-17T06:41:03.973Z,7.20
2018-03-17T06:43:29.965Z,6.83
2018-03-17T06:45:56.011Z,5.97
2018-03-17T06:48:21.987Z,6.60
2018-03-17T06:50:47.965Z,6.50
2018-03-17T06:53:14.197Z,6.00
2018-03-17T06:55:40.185Z,6.60
2018-03-17T06:58:06.168Z,6.20
2018-03-17T07:00:32.224Z,6.07
2018-03-17T07:02:58.945Z,6.03
2018-03-17T07:05:24.916Z,6.60
2018-03-17T07:07:52.056Z,5.83
2018-03-17T07:10:18.067Z,6.03
2018-03-17T07:12:44.030Z,4.70
2018-03-17T07:15:10.282Z,4.73
2018-03-17T07:17:36.274Z,4.37
2018-03-17T07:20:02.253Z,6.17
2018-03-17T07:22:28.986Z,6.03
2018-03-17T07:24:54.940Z,5.10
2018-03-17T07:27:20.913Z,6.17
2018-03-17T07:29:47.431Z,4.10
2018-03-17T07:32:14.126Z,4.70
2018-03-17T07:34:40.096Z,5.00
2018-03-17T07:37:06.084Z,4.47
2018-03-17T07:39:32.070Z,4.03
2018-03-17T07:41:58.031Z,4.27
2018-03-17T07:44:24.037Z,4.83
2018-03-17T07:46:50.436Z,4.47
2018-03-17T07:49:16.404Z,5.43
2018-03-17T07:51:42.430Z,5.33
2018-03-17T07:54:08.415Z,5.43
2018-03-17T07:56:35.137Z,5.73
2018-03-17T07:59:01.128Z,4.27
2018-03-17T08:01:27.098Z,4.90
2018-03-17T08:03:53.079Z,5.30
2018-03-17T08:06:19.825Z,4.13
2018-03-17T08:08:46.529Z,4.90
2018-03-17T08:11:12.509Z,5.13
2018-03-17T08:13:39.264Z,5.63
2018-03-17T08:16:05.969Z,4.57
2018-03-17T08:18:31.944Z,6.53
2018-03-17T08:20:57.968Z,5.93
2018-03-17T08:23:23.952Z,5.80
2018-03-17T08:25:49.919Z,5.13
2018-03-17T08:28:15.917Z,5.60
2018-03-17T08:30:41.887Z,5.40
2018-03-17T08:33:07.952Z,5.50
2018-03-17T08:35:34.179Z,5.40
2018-03-17T08:38:00.137Z,3.70
2018-03-17T08:40:26.080Z,4.20
2018-03-17T08:42:53.008Z,5.20
2018-03-17T08:45:18.980Z,4.30
2018-03-17T08:47:45.743Z,4.63
2018-03-17T08:50:12.171Z,5.67
2018-03-17T08:52:39.001Z,4.70
2018-03-17T08:55:05.059Z,3.87
2018-03-17T08:57:31.828Z,6.30
2018-03-17T08:59:58.537Z,5.50
2018-03-17T09:02:24.504Z,4.70
2018-03-17T09:04:51.349Z,5.03
2018-03-17T09:07:17.304Z,4.53
2018-03-17T09:09:44.007Z,4.77
2018-03-17T09:12:10.016Z,3.07
2018-03-17T09:14:35.977Z,2.30
2018-03-17T09:17:01.931Z,4.97
2018-03-17T09:19:27.972Z,5.47
2018-03-17T09:21:53.941Z,5.47
2018-03-17T09:24:19.995Z,4.03
2018-03-17T09:26:46.708Z,4.97
2018-03-17T09:29:13.457Z,5.03
2018-03-17T09:31:39.435Z,5.13
2018-03-17T09:34:05.420Z,5.13
2018-03-17T09:36:32.882Z,4.93
2018-03-17T09:38:58.859Z,4.10
2018-03-17T09:41:24.836Z,4.67
2018-03-17T09:43:57.743Z,4.47
2018-03-17T09:46:23.722Z,4.77
2018-03-17T09:48:50.457Z,4.80
2018-03-17T09:51:17.164Z,5.27
2018-03-17T09:53:43.164Z,3.87
2018-03-17T09:56:10.075Z,4.60
2018-03-17T09:58:36.091Z,4.30
2018-03-17T10:01:02.061Z,4.77
2018-03-17T10:03:28.283Z,4.87
2018-03-17T10:05:54.235Z,4.30
2018-03-17T10:08:20.247Z,5.57
2018-03-17T10:10:46.237Z,5.37
2018-03-17T10:13:12.961Z,5.17
2018-03-17T10:15:38.937Z,4.60
2018-03-17T10:18:05.731Z,4.40
2018-03-17T10:20:31.699Z,2.67
2018-03-17T10:22:57.660Z,3.77
2018-03-17T10:25:23.734Z,4.20
2018-03-17T10:27:49.686Z,4.57
2018-03-17T10:30:15.645Z,3.30
2018-03-17T10:32:42.422Z,5.50
2018-03-17T10:35:09.140Z,3.67
2018-03-17T10:37:35.248Z,4.80
2018-03-17T10:40:01.255Z,4.20
2018-03-17T10:42:27.227Z,4.53
2018-03-17T10:44:53.241Z,3.03
2018-03-17T10:47:19.532Z,4.27
2018-03-17T10:49:45.521Z,4.27
2018-03-17T10:52:11.551Z,4.77
2018-03-17T10:54:37.567Z,3.83
2018-03-17T10:57:03.548Z,3.47
2018-03-17T10:59:29.525Z,4.30
2018-03-17T11:02:01.255Z,5.00
2018-03-17T11:04:27.208Z,4.60
2018-03-17T11:06:53.170Z,3.30
2018-03-17T11:09:20.080Z,4.50
2018-03-17T11:11:46.059Z,3.83
2018-03-17T11:14:12.771Z,4.63
2018-03-17T11:16:38.882Z,4.50
2018-03-17T11:19:04.972Z,4.80
2018-03-17T11:21:30.956Z,2.70
2018-03-17T11:23:57.438Z,4.73
2018-03-17T11:26:23.421Z,4.50
2018-03-17T11:28:49.381Z,4.53
2018-03-17T11:31:15.373Z,4.97
2018-03-17T11:33:42.060Z,3.87
2018-03-17T11:36:08.020Z,2.43
2018-03-17T11:38:34.123Z,2.77
2018-03-17T11:41:00.083Z,4.87
2018-03-17T11:43:26.048Z,5.50
2018-03-17T11:45:52.037Z,4.57
2018-03-17T11:48:17.993Z,5.50
2018-03-17T11:50:43.979Z,4.07
2018-03-17T11:53:10.695Z,4.57
2018-03-17T11:55:36.668Z,5.57
2018-03-17T11:58:03.436Z,4.50
2018-03-17T12:00:29.412Z,5.17
2018-03-17T12:02:55.416Z,3.30
2018-03-17T12:05:21.489Z,4.50
2018-03-17T12:07:47.982Z,4.87
2018-03-17T12:10:14.686Z,4.87
2018-03-17T12:12:40.677Z,4.00
2018-03-17T12:15:06.679Z,4.43
2018-03-17T12:17:32.696Z,4.97
2018-03-17T12:19:58.664Z,4.87
2018-03-17T12:22:25.425Z,5.03
2018-03-17T12:24:51.447Z,4.03
2018-03-17T12:27:17.431Z,4.30
2018-03-17T12:29:43.533Z,4.30
2018-03-17T12:32:10.265Z,3.13
2018-03-17T12:34:36.232Z,3.73
2018-03-17T12:37:03.786Z,3.00
2018-03-17T12:39:30.048Z,3.70
2018-03-17T12:41:56.061Z,3.80
2018-03-17T12:44:22.823Z,4.37
2018-03-17T12:46:49.524Z,4.10
2018-03-17T12:49:15.471Z,4.00
2018-03-17T12:51:41.589Z,4.97
2018-03-17T12:54:07.675Z,2.67
2018-03-17T12:56:33.737Z,4.50
2018-03-17T12:59:00.488Z,4.20
2018-03-17T13:01:27.184Z,4.47
2018-03-17T13:03:53.149Z,4.60
2018-03-17T13:06:19.164Z,5.23
2018-03-17T13:08:45.124Z,5.07
2018-03-17T13:11:11.091Z,5.00
2018-03-17T13:13:37.134Z,5.73
2018-03-17T13:16:03.130Z,4.13
2018-03-17T13:18:29.151Z,4.67
2018-03-17T13:20:55.399Z,5.20
2018-03-17T13:23:21.361Z,4.60
2018-03-17T13:25:48.072Z,4.73
2018-03-17T13:28:25.116Z,4.43
2018-03-17T13:30:51.076Z,2.57
2018-03-17T13:33:17.062Z,3.53
2018-03-17T13:35:55.456Z,4.33
2018-03-17T13:38:21.445Z,4.50
2018-03-17T13:40:47.408Z,3.97
2018-03-17T13:43:13.494Z,4.53
2018-03-17T13:45:40.211Z,4.27
2018-03-17T13:48:06.275Z,4.83
2018-03-17T13:50:32.315Z,3.23
2018-03-17T13:52:58.302Z,4.80
2018-03-17T13:55:24.290Z,4.33
2018-03-17T13:57:50.518Z,4.70
2018-03-17T14:00:16.527Z,3.90
2018-03-17T14:02:42.567Z,4.57
2018-03-17T14:05:08.608Z,5.03
2018-03-17T14:07:34.582Z,2.97
2018-03-17T14:10:00.549Z,4.50
2018-03-17T14:12:26.765Z,5.30
2018-03-17T14:14:52.726Z,5.03
2018-03-17T14:17:18.730Z,4.83
2018-03-17T14:19:44.883Z,4.30
2018-03-17T14:22:11.609Z,5.10
2018-03-17T14:24:37.610Z,4.20
2018-03-17T14:27:03.636Z,3.83
2018-03-17T14:29:29.594Z,5.23
2018-03-17T14:31:55.535Z,4.53
2018-03-17T14:34:21.570Z,4.47
2018-03-17T14:36:47.560Z,4.30
2018-03-17T14:39:13.521Z,5.30
2018-03-17T14:41:39.876Z,3.53
2018-03-17T14:44:05.886Z,4.77
2018-03-17T14:46:31.848Z,4.20
2018-03-17T14:48:57.844Z,3.33
2018-03-17T14:51:23.846Z,3.50
2018-03-17T14:53:49.854Z,3.80
2018-03-17T14:56:15.908Z,5.07
2018-03-17T14:58:41.860Z,3.03
2018-03-17T15:01:08.588Z,3.30
2018-03-17T15:03:34.612Z,4.83
2018-03-17T15:06:00.593Z,4.20
2018-03-17T15:08:27.326Z,5.87
2018-03-17T15:10:53.315Z,5.07
2018-03-17T15:13:19.492Z,4.73
2018-03-17T15:15:46.948Z,3.90
2018-03-17T15:18:12.976Z,4.63
2018-03-17T15:20:38.958Z,4.90
2018-03-17T15:23:05.702Z,4.23
2018-03-17T15:25:31.699Z,4.83
2018-03-17T15:27:57.700Z,4.97
2018-03-17T15:30:24.409Z,4.77
2018-03-17T15:32:50.551Z,4.63
2018-03-17T15:35:16.505Z,4.43
2018-03-17T15:37:42.504Z,5.07
2018-03-17T15:40:08.490Z,5.00
2018-03-17T15:42:35.208Z,5.53
2018-03-17T15:45:01.181Z,5.00
2018-03-17T15:47:27.297Z,4.37
2018-03-17T15:49:53.296Z,4.93
2018-03-17T15:52:19.317Z,3.90
2018-03-17T15:54:45.279Z,5.10
2018-03-17T15:57:11.252Z,5.20
2018-03-17T15:59:37.960Z,4.60
2018-03-17T16:02:04.053Z,4.27
2018-03-17T16:04:30.844Z,4.43
2018-03-17T16:06:56.825Z,4.93
2018-03-17T16:09:22.841Z,5.50
2018-03-17T16:11:48.821Z,5.50
2018-03-17T16:14:14.788Z,5.80
2018-03-17T16:16:40.892Z,4.63
2018-03-17T16:19:06.854Z,4.87
2018-03-17T16:21:32.824Z,5.47
2018-03-17T16:23:58.968Z,5.77
2018-03-17T16:26:25.130Z,3.67
2018-03-17T16:28:51.108Z,3.17
2018-03-17T16:31:17.105Z,4.57
2018-03-17T16:33:43.802Z,5.90
2018-03-17T16:36:09.768Z,5.60
2018-03-17T16:38:35.772Z,5.57
2018-03-17T16:41:01.745Z,4.70
2018-03-17T16:43:27.778Z,4.70
2018-03-17T16:45:53.853Z,4.40
2018-03-17T16:48:19.896Z,4.43
2018-03-17T16:50:45.875Z,5.00
2018-03-17T16:53:11.866Z,5.03
2018-03-17T16:55:37.856Z,4.40
2018-03-17T16:58:03.828Z,5.90
2018-03-17T17:00:29.808Z,5.27
2018-03-17T17:02:55.792Z,5.53
2018-03-17T17:05:22.654Z,5.47
2018-03-17T17:07:48.671Z,2.23
2018-03-17T17:10:15.368Z,4.00
2018-03-17T17:12:41.334Z,4.57
2018-03-17T17:15:07.377Z,2.90
2018-03-17T17:17:33.359Z,5.37
2018-03-17T17:19:59.316Z,5.93
2018-03-17T17:22:25.497Z,5.07
2018-03-17T17:24:52.239Z,4.83
2018-03-17T17:27:18.321Z,5.10
2018-03-17T17:29:44.446Z,5.20
2018-03-17T17:32:11.143Z,3.47
2018-03-17T17:34:37.189Z,5.47
2018-03-17T17:37:03.333Z,5.03
2018-03-17T17:39:29.292Z,5.10
2018-03-17T17:41:55.321Z,4.00
2018-03-17T17:44:21.592Z,4.87
2018-03-17T17:46:47.551Z,4.70
2018-03-17T17:49:13.524Z,4.50
2018-03-17T17:51:39.774Z,5.60
2018-03-17T17:54:05.732Z,5.10
2018-03-17T17:56:32.427Z,5.33
2018-03-17T17:58:58.575Z,4.80
2018-03-17T18:01:24.548Z,4.90
2018-03-17T18:03:51.268Z,5.53
2018-03-17T18:06:17.305Z,4.43
2018-03-17T18:08:43.317Z,5.00
2018-03-17T18:11:09.297Z,4.23
2018-03-17T18:13:36.023Z,4.17
2018-03-17T18:16:01.998Z,4.13
2018-03-17T18:18:28.708Z,4.67
2018-03-17T18:20:54.720Z,4.57
2018-03-17T18:23:20.707Z,5.07
2018-03-17T18:25:48.194Z,5.73
2018-03-17T18:28:15.100Z,5.10
2018-03-17T18:30:41.079Z,5.63
2018-03-17T18:33:07.034Z,5.50
2018-03-17T18:35:33.762Z,3.73
2018-03-17T18:37:59.741Z,4.80
2018-03-17T18:40:25.719Z,5.60
2018-03-17T18:42:51.732Z,6.50
2018-03-17T18:45:17.772Z,4.27
2018-03-17T18:47:43.691Z,7.10
2018-03-17T18:50:10.009Z,5.00
2018-03-17T18:52:36.147Z,3.67
2018-03-17T18:55:02.151Z,4.27
2018-03-17T18:57:28.531Z,5.07
2018-03-17T18:59:54.525Z,4.70
2018-03-17T19:02:20.504Z,5.03
2018-03-17T19:04:46.539Z,3.40
2018-03-17T19:07:12.575Z,4.00
2018-03-17T19:09:38.629Z,4.33
2018-03-17T19:12:04.755Z,2.50
2018-03-17T19:14:30.729Z,4.13
2018-03-17T19:16:57.435Z,5.27
2018-03-17T19:19:23.901Z,5.17
2018-03-17T19:21:49.919Z,4.73
2018-03-17T19:24:15.919Z,4.80
2018-03-17T19:26:42.060Z,3.87
2018-03-17T19:29:09.108Z,4.07
2018-03-17T19:31:35.945Z,4.20
2018-03-17T19:34:03.211Z,5.07
2018-03-17T19:36:29.928Z,4.90
2018-03-17T19:38:55.897Z,4.33
2018-03-17T19:41:22.858Z,4.70
2018-03-17T19:43:49.566Z,3.70
2018-03-17T19:46:15.531Z,5.23
2018-03-17T19:48:41.685Z,4.60
2018-03-17T19:51:08.528Z,4.17
2018-03-17T19:53:34.525Z,5.30
2018-03-17T19:56:00.561Z,3.87
2018-03-17T19:58:26.542Z,3.90
2018-03-17T20:00:52.515Z,3.10
2018-03-17T20:03:18.525Z,2.70
2018-03-17T20:05:45.228Z,4.80
2018-03-17T20:08:11.290Z,3.97
2018-03-17T20:10:37.413Z,5.50
2018-03-17T20:13:03.588Z,3.57
2018-03-17T20:15:30.329Z,4.03
2018-03-17T20:17:56.467Z,3.17
2018-03-17T20:20:22.446Z,3.53
2018-03-17T20:22:48.487Z,3.47
2018-03-17T20:25:14.636Z,4.10
2018-03-17T20:27:40.779Z,3.60
2018-03-17T20:30:06.935Z,5.57
2018-03-17T20:32:34.000Z,2.80
2018-03-17T20:34:59.984Z,4.43
2018-03-17T20:37:25.955Z,3.40
2018-03-17T20:39:52.220Z,4.43
2018-03-17T20:42:18.180Z,3.27
2018-03-17T20:44:44.883Z,3.33
2018-03-17T20:47:10.950Z,5.00
2018-03-17T20:49:37.060Z,4.10
2018-03-17T20:52:03.088Z,3.53
2018-03-17T20:54:30.072Z,3.67
2018-03-17T20:56:56.052Z,4.60
2018-03-17T20:59:22.790Z,3.53
2018-03-17T21:01:49.552Z,4.93
2018-03-17T21:04:16.296Z,3.00
2018-03-17T21:06:42.352Z,4.20
2018-03-17T21:09:08.540Z,4.60
2018-03-17T21:11:34.590Z,3.93
2018-03-17T21:14:01.295Z,4.83
2018-03-17T21:16:27.328Z,4.57
2018-03-17T21:18:53.285Z,5.40
2018-03-17T21:21:19.260Z,4.63
2018-03-17T21:23:45.293Z,4.53
2018-03-17T21:26:11.355Z,4.97
2018-03-17T21:28:38.181Z,3.17
2018-03-17T21:31:05.189Z,4.80
2018-03-17T21:33:31.193Z,5.90
2018-03-17T21:35:57.902Z,3.63
2018-03-17T21:38:23.919Z,3.77
2018-03-17T21:40:49.899Z,3.77
2018-03-17T21:43:16.609Z,3.97
2018-03-17T21:45:42.695Z,2.67
2018-03-17T21:48:08.830Z,4.17
2018-03-17T21:50:34.908Z,5.13
2018-03-17T21:53:00.891Z,4.97
2018-03-17T21:55:33.953Z,4.67
2018-03-17T21:57:59.977Z,4.63
2018-03-17T22:00:25.981Z,5.37
2018-03-17T22:02:51.980Z,4.73
2018-03-17T22:05:18.146Z,5.93
2018-03-17T22:07:44.207Z,3.77
2018-03-17T22:10:11.092Z,4.33
2018-03-17T22:12:37.266Z,4.33
2018-03-17T22:15:03.658Z,4.87
2018-03-17T22:17:29.631Z,5.40
2018-03-17T22:19:55.633Z,3.80
2018-03-17T22:22:22.337Z,5.27
2018-03-17T22:24:48.358Z,4.97
2018-03-17T22:27:15.796Z,4.80
2018-03-17T22:29:41.861Z,5.37
2018-03-17T22:32:07.911Z,5.30
2018-03-17T22:34:34.016Z,5.33
2018-03-17T22:36:59.991Z,3.90
2018-03-17T22:39:26.002Z,4.80
2018-03-17T22:41:51.989Z,5.40
2018-03-17T22:44:17.954Z,5.53
2018-03-17T22:46:43.982Z,4.80
2018-03-17T22:49:10.901Z,4.13
2018-03-17T22:51:37.025Z,5.53
2018-03-17T22:54:03.407Z,6.30
2018-03-17T22:56:30.335Z,5.00
2018-03-17T22:58:56.305Z,4.93
2018-03-17T23:01:23.025Z,3.90
2018-03-17T23:03:49.280Z,4.30
2018-03-17T23:06:15.264Z,5.63
2018-03-17T23:08:41.330Z,5.77
2018-03-17T23:11:07.629Z,4.67
2018-03-17T23:13:34.505Z,4.37
2018-03-17T23:16:00.528Z,4.70
2018-03-17T23:18:26.608Z,4.77
2018-03-17T23:20:52.610Z,4.17
2018-03-17T23:23:18.573Z,3.73
2018-03-17T23:25:44.728Z,4.73
2018-03-17T23:28:10.821Z,4.63
2018-03-17T23:30:37.001Z,3.93
2018-03-17T23:33:03.154Z,5.70
2018-03-17T23:35:29.126Z,5.63
2018-03-17T23:37:55.116Z,5.50
2018-03-17T23:40:21.116Z,4.53
2018-03-17T23:42:47.140Z,6.10
2018-03-17T23:45:13.142Z,4.60
2018-03-17T23:47:40.021Z,4.67
2018-03-17T23:50:06.258Z,4.73
2018-03-17T23:52:32.374Z,4.77
2018-03-17T23:54:58.601Z,6.23
2018-03-17T23:57:24.576Z,6.00
2018-03-17T23:59:50.630Z,5.77
